sensor_id;sensor_type;location;lat;lon;timestamp;pressure;altitude;pressure_sealevel;temperature;humidity
56737;BME280;42618;51.226;4.910;2023-05-11T00:00:51;49750.94;;;-146.94;100.00
56737;BME280;42618;51.226;4.910;2023-05-11T00:03:17;49736.97;;;-146.94;100.00
56737;BME280;42618;51.226;4.910;2023-05-11T00:05:47;49721.03;;;-146.94;100.00
56737;BME280;42618;51.226;4.910;2023-05-11T00:08:14;49727.00;;;-146.94;100.00
56737;BME280;42618;51.226;4.910;2023-05-11T00:10:45;49788.81;;;-146.94;100.00
56737;BME280;42618;51.226;4.910;2023-05-11T00:13:12;49705.06;;;-146.94;100.00
56737;BME280;42618;51.226;4.910;2023-05-11T00:15:39;49750.94;;;-146.94;100.00
56737;BME280;42618;51.226;4.910;2023-05-11T00:18:06;49782.81;;;-146.94;100.00
56737;BME280;42618;51.226;4.910;2023-05-11T00:20:32;49766.88;;;-146.94;100.00
56737;BME280;42618;51.226;4.910;2023-05-11T00:22:59;49794.78;;;-146.94;100.00
56737;BME280;42618;51.226;4.910;2023-05-11T00:25:26;49734.97;;;-146.94;100.00
56737;BME280;42618;51.226;4.910;2023-05-11T00:27:53;49742.94;;;-146.94;100.00
56737;BME280;42618;51.226;4.910;2023-05-11T00:30:19;49792.78;;;-146.94;100.00
56737;BME280;42618;51.226;4.910;2023-05-11T00:32:46;49780.84;;;-146.94;100.00
56737;BME280;42618;51.226;4.910;2023-05-11T00:35:14;49786.81;;;-146.94;100.00
56737;BME280;42618;51.226;4.910;2023-05-11T00:37:41;49752.91;;;-146.94;100.00
56737;BME280;42618;51.226;4.910;2023-05-11T00:40:08;49780.84;;;-146.94;100.00
56737;BME280;42618;51.226;4.910;2023-05-11T00:42:35;49780.84;;;-146.94;100.00
56737;BME280;42618;51.226;4.910;2023-05-11T00:45:01;49764.88;;;-146.94;100.00
56737;BME280;42618;51.226;4.910;2023-05-11T00:47:28;49762.88;;;-146.94;100.00
56737;BME280;42618;51.226;4.910;2023-05-11T00:49:56;49772.84;;;-146.94;100.00
56737;BME280;42618;51.226;4.910;2023-05-11T00:52:23;49752.91;;;-146.94;100.00
56737;BME280;42618;51.226;4.910;2023-05-11T00:54:50;49762.88;;;-146.94;100.00
56737;BME280;42618;51.226;4.910;2023-05-11T00:57:17;49782.81;;;-146.94;100.00
56737;BME280;42618;51.226;4.910;2023-05-11T00:59:45;49758.91;;;-146.94;100.00
56737;BME280;42618;51.226;4.910;2023-05-11T01:02:12;49796.78;;;-146.94;100.00
56737;BME280;42618;51.226;4.910;2023-05-11T01:04:39;49768.88;;;-146.94;100.00
56737;BME280;42618;51.226;4.910;2023-05-11T01:07:15;49766.88;;;-146.94;100.00
56737;BME280;42618;51.226;4.910;2023-05-11T01:10:52;49762.88;;;-146.94;100.00
56737;BME280;42618;51.226;4.910;2023-05-11T01:14:33;49788.81;;;-146.94;100.00
56737;BME280;42618;51.226;4.910;2023-05-11T01:16:30;49790.81;;;-146.94;100.00
56737;BME280;42618;51.226;4.910;2023-05-11T01:19:05;49758.91;;;-146.94;100.00
56737;BME280;42618;51.226;4.910;2023-05-11T01:21:38;49750.94;;;-146.94;100.00
56737;BME280;42618;51.226;4.910;2023-05-11T01:26:45;49736.97;;;-146.94;100.00
56737;BME280;42618;51.226;4.910;2023-05-11T01:31:46;49782.81;;;-146.94;100.00
56737;BME280;42618;51.226;4.910;2023-05-11T01:34:18;49818.72;;;-146.94;100.00
56737;BME280;42618;51.226;4.910;2023-05-11T01:36:53;49760.91;;;-146.94;100.00
56737;BME280;42618;51.226;4.910;2023-05-11T01:39:29;49752.91;;;-146.94;100.00
56737;BME280;42618;51.226;4.910;2023-05-11T01:42:03;49790.81;;;-146.94;100.00
56737;BME280;42618;51.226;4.910;2023-05-11T01:44:33;49733.00;;;-146.94;100.00
56737;BME280;42618;51.226;4.910;2023-05-11T01:47:01;49778.84;;;-146.94;100.00
56737;BME280;42618;51.226;4.910;2023-05-11T01:49:31;49778.84;;;-146.94;100.00
56737;BME280;42618;51.226;4.910;2023-05-11T01:52:01;49772.84;;;-146.94;100.00
56737;BME280;42618;51.226;4.910;2023-05-11T01:54:29;49782.81;;;-146.94;100.00
56737;BME280;42618;51.226;4.910;2023-05-11T01:56:58;49731.00;;;-146.94;100.00
56737;BME280;42618;51.226;4.910;2023-05-11T01:59:27;49742.94;;;-146.94;100.00
56737;BME280;42618;51.226;4.910;2023-05-11T02:01:55;49754.91;;;-146.94;100.00
56737;BME280;42618;51.226;4.910;2023-05-11T02:04:24;49772.84;;;-146.94;100.00
56737;BME280;42618;51.226;4.910;2023-05-11T02:06:51;49784.81;;;-146.94;100.00
56737;BME280;42618;51.226;4.910;2023-05-11T02:09:18;49762.88;;;-146.94;100.00
56737;BME280;42618;51.226;4.910;2023-05-11T02:11:49;49736.97;;;-146.94;100.00
56737;BME280;42618;51.226;4.910;2023-05-11T02:14:17;49810.75;;;-146.94;100.00
56737;BME280;42618;51.226;4.910;2023-05-11T02:16:47;49792.78;;;-146.94;100.00
56737;BME280;42618;51.226;4.910;2023-05-11T02:19:16;49758.91;;;-146.94;100.00
56737;BME280;42618;51.226;4.910;2023-05-11T02:21:44;49766.88;;;-146.94;100.00
56737;BME280;42618;51.226;4.910;2023-05-11T02:24:11;49746.94;;;-146.94;100.00
56737;BME280;42618;51.226;4.910;2023-05-11T02:26:38;49750.94;;;-146.94;100.00
56737;BME280;42618;51.226;4.910;2023-05-11T02:29:05;49734.97;;;-146.94;100.00
56737;BME280;42618;51.226;4.910;2023-05-11T02:31:35;49738.97;;;-146.94;100.00
56737;BME280;42618;51.226;4.910;2023-05-11T02:34:09;49766.88;;;-146.94;100.00
56737;BME280;42618;51.226;4.910;2023-05-11T02:36:46;49764.88;;;-146.94;100.00
56737;BME280;42618;51.226;4.910;2023-05-11T02:39:16;49790.81;;;-146.94;100.00
56737;BME280;42618;51.226;4.910;2023-05-11T02:41:51;49768.88;;;-146.94;100.00
56737;BME280;42618;51.226;4.910;2023-05-11T02:44:21;49770.88;;;-146.94;100.00
56737;BME280;42618;51.226;4.910;2023-05-11T02:46:51;49746.94;;;-146.94;100.00
56737;BME280;42618;51.226;4.910;2023-05-11T02:49:23;49762.88;;;-146.94;100.00
56737;BME280;42618;51.226;4.910;2023-05-11T02:51:52;49776.84;;;-146.94;100.00
56737;BME280;42618;51.226;4.910;2023-05-11T02:54:22;49790.81;;;-146.94;100.00
56737;BME280;42618;51.226;4.910;2023-05-11T02:56:51;49794.78;;;-146.94;100.00
56737;BME280;42618;51.226;4.910;2023-05-11T02:59:18;49772.84;;;-146.94;100.00
56737;BME280;42618;51.226;4.910;2023-05-11T03:01:46;49744.94;;;-146.94;100.00
56737;BME280;42618;51.226;4.910;2023-05-11T03:04:14;49762.88;;;-146.94;100.00
56737;BME280;42618;51.226;4.910;2023-05-11T03:06:40;49758.91;;;-146.94;100.00
56737;BME280;42618;51.226;4.910;2023-05-11T03:09:08;49719.03;;;-146.94;100.00
56737;BME280;42618;51.226;4.910;2023-05-11T03:11:40;49758.91;;;-146.94;100.00
56737;BME280;42618;51.226;4.910;2023-05-11T03:14:08;49762.88;;;-146.94;100.00
56737;BME280;42618;51.226;4.910;2023-05-11T03:16:36;49782.81;;;-146.94;100.00
56737;BME280;42618;51.226;4.910;2023-05-11T03:19:05;49784.81;;;-146.94;100.00
56737;BME280;42618;51.226;4.910;2023-05-11T03:21:33;49778.84;;;-146.94;100.00
56737;BME280;42618;51.226;4.910;2023-05-11T03:24:03;49788.81;;;-146.94;100.00
56737;BME280;42618;51.226;4.910;2023-05-11T03:26:32;49770.88;;;-146.94;100.00
56737;BME280;42618;51.226;4.910;2023-05-11T03:29:00;49762.88;;;-146.94;100.00
56737;BME280;42618;51.226;4.910;2023-05-11T03:31:28;49830.66;;;-146.94;100.00
56737;BME280;42618;51.226;4.910;2023-05-11T03:33:57;49770.88;;;-146.94;100.00
56737;BME280;42618;51.226;4.910;2023-05-11T03:36:25;49746.94;;;-146.94;100.00
56737;BME280;42618;51.226;4.910;2023-05-11T03:38:53;49750.94;;;-146.94;100.00
56737;BME280;42618;51.226;4.910;2023-05-11T03:41:30;49790.81;;;-146.94;100.00
56737;BME280;42618;51.226;4.910;2023-05-11T03:44:02;49808.75;;;-146.94;100.00
56737;BME280;42618;51.226;4.910;2023-05-11T03:46:34;49764.88;;;-146.94;100.00
56737;BME280;42618;51.226;4.910;2023-05-11T03:49:05;49780.84;;;-146.94;100.00
56737;BME280;42618;51.226;4.910;2023-05-11T03:51:34;49794.78;;;-146.94;100.00
56737;BME280;42618;51.226;4.910;2023-05-11T03:54:02;49802.75;;;-146.94;100.00
56737;BME280;42618;51.226;4.910;2023-05-11T03:56:28;49812.72;;;-146.94;100.00
56737;BME280;42618;51.226;4.910;2023-05-11T03:58:56;49764.88;;;-146.94;100.00
56737;BME280;42618;51.226;4.910;2023-05-11T04:01:24;49802.75;;;-146.94;100.00
56737;BME280;42618;51.226;4.910;2023-05-11T04:03:52;49770.88;;;-146.94;100.00
56737;BME280;42618;51.226;4.910;2023-05-11T04:06:21;49754.91;;;-146.94;100.00
56737;BME280;42618;51.226;4.910;2023-05-11T04:09:10;49782.81;;;-146.94;100.00
56737;BME280;42618;51.226;4.910;2023-05-11T04:11:37;49756.91;;;-146.94;100.00
56737;BME280;42618;51.226;4.910;2023-05-11T04:14:04;49754.91;;;-146.94;100.00
56737;BME280;42618;51.226;4.910;2023-05-11T04:16:31;49750.94;;;-146.94;100.00
56737;BME280;42618;51.226;4.910;2023-05-11T04:18:58;49778.84;;;-146.94;100.00
56737;BME280;42618;51.226;4.910;2023-05-11T04:21:24;49742.94;;;-146.94;100.00
56737;BME280;42618;51.226;4.910;2023-05-11T04:23:51;49794.78;;;-146.94;100.00
56737;BME280;42618;51.226;4.910;2023-05-11T04:26:18;49776.84;;;-146.94;100.00
56737;BME280;42618;51.226;4.910;2023-05-11T04:28:45;49764.88;;;-146.94;100.00
56737;BME280;42618;51.226;4.910;2023-05-11T04:31:12;49758.91;;;-146.94;100.00
56737;BME280;42618;51.226;4.910;2023-05-11T04:33:39;49782.81;;;-146.94;100.00
56737;BME280;42618;51.226;4.910;2023-05-11T04:36:06;49764.88;;;-146.94;100.00
56737;BME280;42618;51.226;4.910;2023-05-11T04:38:33;49766.88;;;-146.94;100.00
56737;BME280;42618;51.226;4.910;2023-05-11T04:41:04;49758.91;;;-146.94;100.00
56737;BME280;42618;51.226;4.910;2023-05-11T04:43:31;49796.78;;;-146.94;100.00
56737;BME280;42618;51.226;4.910;2023-05-11T04:45:58;49770.88;;;-146.94;100.00
56737;BME280;42618;51.226;4.910;2023-05-11T04:48:26;49818.72;;;-146.94;100.00
56737;BME280;42618;51.226;4.910;2023-05-11T04:50:54;49802.75;;;-146.94;100.00
56737;BME280;42618;51.226;4.910;2023-05-11T04:53:24;49806.75;;;-146.94;100.00
56737;BME280;42618;51.226;4.910;2023-05-11T04:55:51;49750.94;;;-146.94;100.00
56737;BME280;42618;51.226;4.910;2023-05-11T04:58:18;49766.88;;;-146.94;100.00
56737;BME280;42618;51.226;4.910;2023-05-11T05:00:44;49758.91;;;-146.94;100.00
56737;BME280;42618;51.226;4.910;2023-05-11T05:03:11;49774.84;;;-146.94;100.00
56737;BME280;42618;51.226;4.910;2023-05-11T05:05:38;49804.75;;;-146.94;100.00
56737;BME280;42618;51.226;4.910;2023-05-11T05:08:04;49738.97;;;-146.94;100.00
56737;BME280;42618;51.226;4.910;2023-05-11T05:10:32;49772.84;;;-146.94;100.00
56737;BME280;42618;51.226;4.910;2023-05-11T05:12:59;49780.84;;;-146.94;100.00
56737;BME280;42618;51.226;4.910;2023-05-11T05:15:26;49814.72;;;-146.94;100.00
56737;BME280;42618;51.226;4.910;2023-05-11T05:17:52;49776.84;;;-146.94;100.00
56737;BME280;42618;51.226;4.910;2023-05-11T05:20:19;49766.88;;;-146.94;100.00
56737;BME280;42618;51.226;4.910;2023-05-11T05:22:46;49798.78;;;-146.94;100.00
56737;BME280;42618;51.226;4.910;2023-05-11T05:25:13;49738.97;;;-146.94;100.00
56737;BME280;42618;51.226;4.910;2023-05-11T05:27:40;49766.88;;;-146.94;100.00
56737;BME280;42618;51.226;4.910;2023-05-11T05:30:10;49794.78;;;-146.94;100.00
56737;BME280;42618;51.226;4.910;2023-05-11T05:32:37;49788.81;;;-146.94;100.00
56737;BME280;42618;51.226;4.910;2023-05-11T05:35:04;49772.84;;;-146.94;100.00
56737;BME280;42618;51.226;4.910;2023-05-11T05:37:31;49762.88;;;-146.94;100.00
56737;BME280;42618;51.226;4.910;2023-05-11T05:39:58;49762.88;;;-146.94;100.00
56737;BME280;42618;51.226;4.910;2023-05-11T05:42:25;49774.84;;;-146.94;100.00
56737;BME280;42618;51.226;4.910;2023-05-11T05:44:51;49776.84;;;-146.94;100.00
56737;BME280;42618;51.226;4.910;2023-05-11T05:47:18;49768.88;;;-146.94;100.00
56737;BME280;42618;51.226;4.910;2023-05-11T05:49:45;49778.84;;;-146.94;100.00
56737;BME280;42618;51.226;4.910;2023-05-11T05:52:12;49782.81;;;-146.94;100.00
56737;BME280;42618;51.226;4.910;2023-05-11T05:54:40;49796.78;;;-146.94;100.00
56737;BME280;42618;51.226;4.910;2023-05-11T05:57:06;49782.81;;;-146.94;100.00
56737;BME280;42618;51.226;4.910;2023-05-11T05:59:33;49782.81;;;-146.94;100.00
56737;BME280;42618;51.226;4.910;2023-05-11T06:02:00;49752.91;;;-146.94;100.00
56737;BME280;42618;51.226;4.910;2023-05-11T06:04:28;49810.75;;;-146.94;100.00
56737;BME280;42618;51.226;4.910;2023-05-11T06:06:55;49786.81;;;-146.94;100.00
56737;BME280;42618;51.226;4.910;2023-05-11T06:09:23;49752.91;;;-146.94;100.00
56737;BME280;42618;51.226;4.910;2023-05-11T06:11:49;49784.81;;;-146.94;100.00
56737;BME280;42618;51.226;4.910;2023-05-11T06:14:17;49784.81;;;-146.94;100.00
56737;BME280;42618;51.226;4.910;2023-05-11T06:16:44;49790.81;;;-146.94;100.00
56737;BME280;42618;51.226;4.910;2023-05-11T06:19:11;49792.78;;;-146.94;100.00
56737;BME280;42618;51.226;4.910;2023-05-11T06:21:39;49790.81;;;-146.94;100.00
56737;BME280;42618;51.226;4.910;2023-05-11T06:24:08;49806.75;;;-146.94;100.00
56737;BME280;42618;51.226;4.910;2023-05-11T06:26:37;49782.81;;;-146.94;100.00
56737;BME280;42618;51.226;4.910;2023-05-11T06:29:04;49760.91;;;-146.94;100.00
56737;BME280;42618;51.226;4.910;2023-05-11T06:31:31;49786.81;;;-146.94;100.00
56737;BME280;42618;51.226;4.910;2023-05-11T06:33:58;49798.78;;;-146.94;100.00
56737;BME280;42618;51.226;4.910;2023-05-11T06:36:27;49814.72;;;-146.94;100.00
56737;BME280;42618;51.226;4.910;2023-05-11T06:38:54;49778.84;;;-146.94;100.00
56737;BME280;42618;51.226;4.910;2023-05-11T06:41:21;49778.84;;;-146.94;100.00
56737;BME280;42618;51.226;4.910;2023-05-11T06:43:48;49798.78;;;-146.94;100.00
56737;BME280;42618;51.226;4.910;2023-05-11T06:46:26;49746.94;;;-146.94;100.00
56737;BME280;42618;51.226;4.910;2023-05-11T06:48:53;49794.78;;;-146.94;100.00
56737;BME280;42618;51.226;4.910;2023-05-11T06:51:19;49802.75;;;-146.94;100.00
56737;BME280;42618;51.226;4.910;2023-05-11T06:53:47;49731.00;;;-146.94;100.00
56737;BME280;42618;51.226;4.910;2023-05-11T06:56:14;49774.84;;;-146.94;100.00
56737;BME280;42618;51.226;4.910;2023-05-11T06:58:41;49750.94;;;-146.94;100.00
56737;BME280;42618;51.226;4.910;2023-05-11T07:01:10;49774.84;;;-146.94;100.00
56737;BME280;42618;51.226;4.910;2023-05-11T07:03:37;49756.91;;;-146.94;100.00
56737;BME280;42618;51.226;4.910;2023-05-11T07:06:03;49774.84;;;-146.94;100.00
56737;BME280;42618;51.226;4.910;2023-05-11T07:08:30;49744.94;;;-146.94;100.00
56737;BME280;42618;51.226;4.910;2023-05-11T07:10:57;49731.00;;;-146.94;100.00
56737;BME280;42618;51.226;4.910;2023-05-11T07:13:24;49788.81;;;-146.94;100.00
56737;BME280;42618;51.226;4.910;2023-05-11T07:15:50;49766.88;;;-146.94;100.00
56737;BME280;42618;51.226;4.910;2023-05-11T07:18:19;49772.84;;;-146.94;100.00
56737;BME280;42618;51.226;4.910;2023-05-11T07:20:46;49780.84;;;-146.94;100.00
56737;BME280;42618;51.226;4.910;2023-05-11T07:23:15;49754.91;;;-146.94;100.00
56737;BME280;42618;51.226;4.910;2023-05-11T07:25:42;49758.91;;;-146.94;100.00
56737;BME280;42618;51.226;4.910;2023-05-11T07:28:09;49826.69;;;-146.94;100.00
56737;BME280;42618;51.226;4.910;2023-05-11T07:30:36;49756.91;;;-146.94;100.00
56737;BME280;42618;51.226;4.910;2023-05-11T07:33:02;49760.91;;;-146.94;100.00
56737;BME280;42618;51.226;4.910;2023-05-11T07:35:29;49772.84;;;-146.94;100.00
56737;BME280;42618;51.226;4.910;2023-05-11T07:37:56;49772.84;;;-146.94;100.00
56737;BME280;42618;51.226;4.910;2023-05-11T07:40:23;49786.81;;;-146.94;100.00
56737;BME280;42618;51.226;4.910;2023-05-11T07:42:50;49764.88;;;-146.94;100.00
56737;BME280;42618;51.226;4.910;2023-05-11T07:45:17;49733.00;;;-146.94;100.00
56737;BME280;42618;51.226;4.910;2023-05-11T07:47:43;49750.94;;;-146.94;98.52
56737;BME280;42618;51.226;4.910;2023-05-11T07:50:10;49750.94;;;-146.94;99.24
56737;BME280;42618;51.226;4.910;2023-05-11T07:52:38;49762.88;;;-146.94;98.76
56737;BME280;42618;51.226;4.910;2023-05-11T07:55:05;49729.00;;;-146.94;98.41
56737;BME280;42618;51.226;4.910;2023-05-11T07:57:32;49782.81;;;-146.94;99.79
56737;BME280;42618;51.226;4.910;2023-05-11T07:59:58;49754.91;;;-146.94;99.70
56737;BME280;42618;51.226;4.910;2023-05-11T08:02:25;49770.88;;;-146.94;99.94
56737;BME280;42618;51.226;4.910;2023-05-11T08:04:52;49754.91;;;-146.94;99.38
56737;BME280;42618;51.226;4.910;2023-05-11T08:07:19;49748.94;;;-146.94;100.00
56737;BME280;42618;51.226;4.910;2023-05-11T08:09:45;49788.81;;;-146.94;98.82
56737;BME280;42618;51.226;4.910;2023-05-11T08:12:13;49766.88;;;-146.94;97.07
56737;BME280;42618;51.226;4.910;2023-05-11T08:14:40;49762.88;;;-146.94;99.08
56737;BME280;42618;51.226;4.910;2023-05-11T08:17:08;49717.03;;;-146.94;96.69
56737;BME280;42618;51.226;4.910;2023-05-11T08:19:35;49754.91;;;-146.94;97.97
56737;BME280;42618;51.226;4.910;2023-05-11T08:22:03;49736.97;;;-146.94;95.77
56737;BME280;42618;51.226;4.910;2023-05-11T08:24:29;49778.84;;;-146.94;96.87
56737;BME280;42618;51.226;4.910;2023-05-11T08:26:56;49764.88;;;-146.94;95.01
56737;BME280;42618;51.226;4.910;2023-05-11T08:29:23;49725.00;;;-146.94;93.38
56737;BME280;42618;51.226;4.910;2023-05-11T08:31:53;49760.91;;;-146.94;93.15
56737;BME280;42618;51.226;4.910;2023-05-11T08:34:19;49733.00;;;-146.94;92.84
56737;BME280;42618;51.226;4.910;2023-05-11T08:36:47;49711.06;;;-146.94;91.52
56737;BME280;42618;51.226;4.910;2023-05-11T08:39:14;49734.97;;;-146.94;88.98
56737;BME280;42618;51.226;4.910;2023-05-11T08:42:01;49756.91;;;-146.94;87.32
56737;BME280;42618;51.226;4.910;2023-05-11T08:44:28;49758.91;;;-146.94;88.71
56737;BME280;42618;51.226;4.910;2023-05-11T08:46:56;49701.09;;;-146.94;87.90
56737;BME280;42618;51.226;4.910;2023-05-11T08:49:43;49721.03;;;-146.94;88.50
56737;BME280;42618;51.226;4.910;2023-05-11T08:52:11;49750.94;;;-146.94;88.92
56737;BME280;42618;51.226;4.910;2023-05-11T08:54:39;49713.06;;;-146.94;88.10
56737;BME280;42618;51.226;4.910;2023-05-11T08:57:06;49738.97;;;-146.94;88.90
56737;BME280;42618;51.226;4.910;2023-05-11T08:59:33;49764.88;;;-146.94;87.25
56737;BME280;42618;51.226;4.910;2023-05-11T09:02:01;49703.09;;;-146.94;88.22
56737;BME280;42618;51.226;4.910;2023-05-11T09:04:30;49729.00;;;-146.94;88.01
56737;BME280;42618;51.226;4.910;2023-05-11T09:06:58;49742.94;;;-146.94;89.37
56737;BME280;42618;51.226;4.910;2023-05-11T09:09:25;49707.06;;;-146.94;88.90
56737;BME280;42618;51.226;4.910;2023-05-11T09:11:52;49760.91;;;-146.94;88.02
56737;BME280;42618;51.226;4.910;2023-05-11T09:14:19;49727.00;;;-146.94;88.82
56737;BME280;42618;51.226;4.910;2023-05-11T09:16:52;49721.03;;;-146.94;86.98
56737;BME280;42618;51.226;4.910;2023-05-11T09:19:19;49715.03;;;-146.94;87.39
56737;BME280;42618;51.226;4.910;2023-05-11T09:21:46;49721.03;;;-146.94;88.70
56737;BME280;42618;51.226;4.910;2023-05-11T09:24:13;49721.03;;;-146.94;89.37
56737;BME280;42618;51.226;4.910;2023-05-11T09:26:40;49709.06;;;-146.94;87.96
56737;BME280;42618;51.226;4.910;2023-05-11T09:29:07;49752.91;;;-146.94;87.30
56737;BME280;42618;51.226;4.910;2023-05-11T09:31:42;49734.97;;;-146.94;86.38
56737;BME280;42618;51.226;4.910;2023-05-11T09:34:21;49731.00;;;-146.94;86.12
56737;BME280;42618;51.226;4.910;2023-05-11T09:36:53;49742.94;;;-146.94;87.52
56737;BME280;42618;51.226;4.910;2023-05-11T09:39:31;49679.16;;;-146.94;88.84
56737;BME280;42618;51.226;4.910;2023-05-11T09:42:20;49734.97;;;-146.94;88.36
56737;BME280;42618;51.226;4.910;2023-05-11T09:44:47;49734.97;;;-146.94;86.11
56737;BME280;42618;51.226;4.910;2023-05-11T09:47:15;49663.22;;;-146.94;84.45
56737;BME280;42618;51.226;4.910;2023-05-11T09:49:44;49681.16;;;-146.94;84.96
56737;BME280;42618;51.226;4.910;2023-05-11T09:52:13;49707.06;;;-146.94;82.85
56737;BME280;42618;51.226;4.910;2023-05-11T09:54:41;49734.97;;;-146.94;84.75
56737;BME280;42618;51.226;4.910;2023-05-11T09:57:25;49717.03;;;-146.94;82.70
56737;BME280;42618;51.226;4.910;2023-05-11T09:59:53;49742.94;;;-146.94;80.82
56737;BME280;42618;51.226;4.910;2023-05-11T10:02:21;49723.03;;;-146.94;80.45
56737;BME280;42618;51.226;4.910;2023-05-11T10:04:50;49748.94;;;-146.94;79.26
56737;BME280;42618;51.226;4.910;2023-05-11T10:07:35;49711.06;;;-146.94;80.75
56737;BME280;42618;51.226;4.910;2023-05-11T10:10:06;49723.03;;;-146.94;79.49
56737;BME280;42618;51.226;4.910;2023-05-11T10:12:34;49727.00;;;-146.94;78.52
56737;BME280;42618;51.226;4.910;2023-05-11T10:15:05;49679.16;;;-146.94;76.68
56737;BME280;42618;51.226;4.910;2023-05-11T10:17:33;49721.03;;;-146.94;75.56
56737;BME280;42618;51.226;4.910;2023-05-11T10:20:00;49705.06;;;-146.94;76.67
56737;BME280;42618;51.226;4.910;2023-05-11T10:22:30;49705.06;;;-146.94;76.18
56737;BME280;42618;51.226;4.910;2023-05-11T10:24:58;49671.19;;;-146.94;76.00
56737;BME280;42618;51.226;4.910;2023-05-11T10:27:25;49731.00;;;-146.94;70.99
56737;BME280;42618;51.226;4.910;2023-05-11T10:29:52;49727.00;;;-146.94;72.78
56737;BME280;42618;51.226;4.910;2023-05-11T10:32:19;49738.97;;;-146.94;74.41
56737;BME280;42618;51.226;4.910;2023-05-11T10:34:47;49719.03;;;-146.94;77.76
56737;BME280;42618;51.226;4.910;2023-05-11T10:37:16;49679.16;;;-146.94;76.64
56737;BME280;42618;51.226;4.910;2023-05-11T10:39:44;49717.03;;;-146.94;77.87
56737;BME280;42618;51.226;4.910;2023-05-11T10:45:14;49731.00;;;-146.94;74.87
56737;BME280;42618;51.226;4.910;2023-05-11T10:59:38;49651.25;;;-146.94;70.17
56737;BME280;42618;51.226;4.910;2023-05-11T11:02:10;49675.19;;;-146.94;68.20
56737;BME280;42618;51.226;4.910;2023-05-11T11:05:03;49647.25;;;-146.94;63.27
56737;BME280;42618;51.226;4.910;2023-05-11T11:07:55;49643.28;;;-146.94;62.09
56737;BME280;42618;51.226;4.910;2023-05-11T11:13:07;49671.19;;;-146.94;57.87
56737;BME280;42618;51.226;4.910;2023-05-11T11:20:56;49655.25;;;-146.94;61.38
56737;BME280;42618;51.226;4.910;2023-05-11T11:26:06;49669.19;;;-146.94;59.04
56737;BME280;42618;51.226;4.910;2023-05-11T11:31:32;49707.06;;;-146.94;59.75
56737;BME280;42618;51.226;4.910;2023-05-11T11:34:35;49655.25;;;-146.94;57.86
56737;BME280;42618;51.226;4.910;2023-05-11T11:37:03;49633.31;;;-146.94;57.12
56737;BME280;42618;51.226;4.910;2023-05-11T11:42:13;49663.22;;;-146.94;53.76
56737;BME280;42618;51.226;4.910;2023-05-11T11:44:42;49665.22;;;-146.94;53.10
56737;BME280;42618;51.226;4.910;2023-05-11T11:47:19;49651.25;;;-146.94;55.06
56737;BME280;42618;51.226;4.910;2023-05-11T11:49:48;49663.22;;;-146.94;54.37
56737;BME280;42618;51.226;4.910;2023-05-11T11:54:55;49659.22;;;-146.94;50.59
56737;BME280;42618;51.226;4.910;2023-05-11T11:59:55;49649.25;;;-146.94;50.88
56737;BME280;42618;51.226;4.910;2023-05-11T12:02:22;49643.28;;;-146.94;51.64
56737;BME280;42618;51.226;4.910;2023-05-11T12:05:12;49673.19;;;-146.94;50.23
56737;BME280;42618;51.226;4.910;2023-05-11T12:07:42;49631.31;;;-146.94;47.94
56737;BME280;42618;51.226;4.910;2023-05-11T12:10:11;49643.28;;;-146.94;47.65
56737;BME280;42618;51.226;4.910;2023-05-11T12:12:39;49665.22;;;-146.94;47.85
56737;BME280;42618;51.226;4.910;2023-05-11T12:15:06;49643.28;;;-146.94;47.25
56737;BME280;42618;51.226;4.910;2023-05-11T12:17:37;49613.38;;;-146.94;47.17
56737;BME280;42618;51.226;4.910;2023-05-11T12:20:12;49647.25;;;-146.94;47.36
56737;BME280;42618;51.226;4.910;2023-05-11T12:22:40;49659.22;;;-146.94;46.10
56737;BME280;42618;51.226;4.910;2023-05-11T12:25:07;49635.31;;;-146.94;45.10
56737;BME280;42618;51.226;4.910;2023-05-11T12:27:56;49645.28;;;-146.94;45.09
56737;BME280;42618;51.226;4.910;2023-05-11T12:30:32;49631.31;;;-146.94;45.05
56737;BME280;42618;51.226;4.910;2023-05-11T12:33:00;49627.31;;;-146.94;44.90
56737;BME280;42618;51.226;4.910;2023-05-11T12:35:32;49603.41;;;-146.94;44.68
56737;BME280;42618;51.226;4.910;2023-05-11T12:38:00;49623.34;;;-146.94;44.00
56737;BME280;42618;51.226;4.910;2023-05-11T12:40:30;49629.31;;;-146.94;42.73
56737;BME280;42618;51.226;4.910;2023-05-11T12:42:58;49621.34;;;-146.94;43.92
56737;BME280;42618;51.226;4.910;2023-05-11T12:45:26;49619.34;;;-146.94;45.29
56737;BME280;42618;51.226;4.910;2023-05-11T12:47:55;49643.28;;;-146.94;44.33
56737;BME280;42618;51.226;4.910;2023-05-11T12:50:22;49653.25;;;-146.94;45.98
56737;BME280;42618;51.226;4.910;2023-05-11T12:52:49;49643.28;;;-146.94;45.65
56737;BME280;42618;51.226;4.910;2023-05-11T12:55:29;49623.34;;;-146.94;46.84
56737;BME280;42618;51.226;4.910;2023-05-11T12:58:15;49643.28;;;-146.94;47.88
56737;BME280;42618;51.226;4.910;2023-05-11T13:00:50;49643.28;;;-146.94;49.27
56737;BME280;42618;51.226;4.910;2023-05-11T13:03:23;49647.25;;;-146.94;48.27
56737;BME280;42618;51.226;4.910;2023-05-11T13:05:50;49627.31;;;-146.94;49.63
56737;BME280;42618;51.226;4.910;2023-05-11T13:08:18;49627.31;;;-146.94;50.83
56737;BME280;42618;51.226;4.910;2023-05-11T13:10:45;49639.28;;;-146.94;52.68
56737;BME280;42618;51.226;4.910;2023-05-11T13:13:27;49651.25;;;-146.94;54.93
56737;BME280;42618;51.226;4.910;2023-05-11T13:15:54;49651.25;;;-146.94;55.25
56737;BME280;42618;51.226;4.910;2023-05-11T13:18:21;49659.22;;;-146.94;58.43
56737;BME280;42618;51.226;4.910;2023-05-11T13:21:03;49657.22;;;-146.94;58.79
56737;BME280;42618;51.226;4.910;2023-05-11T13:23:30;49635.31;;;-146.94;57.04
56737;BME280;42618;51.226;4.910;2023-05-11T13:25:57;49657.22;;;-146.94;56.93